Flight Track Log - Related Links

Times and Time Zones

All times are in EDT time to prevent confusion due to time zone crossing. See the LOF3416 flight status page for this flight to view local times or setup timezone preferences in your user account.

Time Position Orientation Groundspeed Altitude Reporting Facility
EDT Latitude Longitude Course Direction KTS MPH feet Rate Location/Type
Mon 06:01:58 PM 41.9500 -87.8333 194° South 193 222 3,400  Level Chicago TRACON
Mon 06:02:28 PM 41.9367 -87.8100 128° Southeast 193 222 4,000 1,109 Climbing Chicago Center
Mon 06:03:30 PM 41.8706 -87.8019 175° South 235 270 5,100 484 Climbing Chicago Center
Mon 06:04:32 PM 41.7994 -87.8003 179° South 253 291 5,000 823 Descending Chicago Center
Mon 06:05:34 PM 41.7408 -87.8414 208° Southwest 248 285 6,800 1,887 Climbing Chicago Center
Mon 06:06:36 PM 41.6733 -87.9103 217° Southwest 256 295 8,900 1,887 Climbing Chicago Center
Mon 06:07:00 PM 41.3889 -88.1648 194° South  Level FlightAware Approximate
Mon 06:07:38 PM 41.6097 -87.9728 216° Southwest 281 323 10,700  Level Chicago Center
Mon 06:08:40 PM 41.5461 -88.0367 217° Southwest 290 334 12,400 1,296 Climbing Chicago Center
Mon 06:09:43 PM 41.4794 -88.1058 218° Southwest 307 353 13,400 912 Climbing Chicago Center
Mon 06:10:45 PM 41.3881 -88.1889 214° Southwest 347 399 14,300 1,016 Climbing Chicago Center
Mon 06:11:47 PM 41.2972 -88.2283 198° South 350 403 15,500 1,258 Climbing Chicago Center
Mon 06:12:49 PM 41.2056 -88.2703 199° South 352 405 16,900 1,161 Climbing Chicago Center
Mon 06:13:51 PM 41.0967 -88.3197 199° South 349 402 17,900 823 Climbing Chicago Center
Mon 06:14:53 PM 41.0006 -88.3631 199° South 361 415 18,600 871 Climbing Chicago Center
Mon 06:15:55 PM 40.9044 -88.4056 198° South 366 421 19,700 1,113 Climbing Chicago Center
Mon 06:16:57 PM 40.8081 -88.4492 199° South 368 423 20,900 1,210 Climbing Chicago Center
Mon 06:17:59 PM 40.7131 -88.4919 199° South 365 420 22,200 1,258 Climbing Chicago Center
Mon 06:19:01 PM 40.5981 -88.5411 198° South 365 420 23,500 1,104 Climbing Chicago Center
Mon 06:20:04 PM 40.5017 -88.5856 199° South 368 423 24,500 960 Climbing Chicago Center
Mon 06:21:06 PM 40.4047 -88.6289 199° South 371 427 25,500 1,065 Climbing Chicago Center
Mon 06:22:08 PM 40.2989 -88.6889 203° Southwest 387 445 26,700 1,065 Climbing Chicago Center
Mon 06:23:10 PM 40.2222 -88.7872 224° Southwest 386 444 27,700 629 Climbing Chicago Center
Mon 06:24:12 PM 40.1442 -88.8881 225° Southwest 393 452 28,000 145 Climbing Chicago Center
Mon 06:25:14 PM 40.0592 -88.9944 224° Southwest 416 479 28,000  Level Chicago Center
Mon 06:26:16 PM 39.9706 -89.1064 224° Southwest 436 502 28,000  Level Chicago Center
Mon 06:27:18 PM 39.8789 -89.2222 224° Southwest 452 520 28,000  Level Chicago Center
Mon 06:28:19 PM 39.7858 -89.3397 224° Southwest 457 526 28,000  Level Kansas City Center
Mon 06:29:19 PM 39.6956 -89.4528 224° Southwest 461 531 28,000  Level Kansas City Center
Mon 06:30:23 PM 39.5858 -89.5894 224° Southwest 459 528 28,000  Level Kansas City Center
Mon 06:31:23 PM 39.4956 -89.7028 224° Southwest 455 524 28,000  Level Kansas City Center
Mon 06:32:27 PM 39.4044 -89.8150 224° Southwest 453 521 28,000  Level Kansas City Center
Mon 06:33:27 PM 39.3144 -89.9272 224° Southwest 453 521 28,000  Level Kansas City Center
Mon 06:34:30 PM 39.2236 -90.0397 224° Southwest 454 522 28,000  Level Kansas City Center
Mon 06:35:34 PM 39.1325 -90.1514 224° Southwest 453 521 28,000  Level Kansas City Center
Mon 06:36:35 PM 39.0244 -90.2839 224° Southwest 451 519 28,000  Level Kansas City Center
Mon 06:37:36 PM 38.9286 -90.4019 224° Southwest 451 519 28,000  Level Kansas City Center
Mon 06:38:37 PM 38.8394 -90.5167 225° Southwest 452 520 28,000  Level Kansas City Center
Mon 06:39:41 PM 38.7458 -90.6267 223° Southwest 450 518 28,000  Level Kansas City Center
Mon 06:40:42 PM 38.6611 -90.7678 232° Southwest 477 549 28,000  Level Kansas City Center
Mon 06:41:46 PM 38.5928 -90.9047 237° Southwest 458 527 28,000  Level Kansas City Center
Mon 06:42:46 PM 38.5236 -91.0461 238° Southwest 468 539 28,000  Level Kansas City Center
Mon 06:43:47 PM 38.4536 -91.1883 238° Southwest 473 544 28,000  Level Kansas City Center
Mon 06:44:51 PM 38.3839 -91.3300 238° Southwest 475 547 28,000 -336 Level Kansas City Center
Mon 06:45:52 PM 38.3014 -91.4942 237° Southwest 478 550 27,300 -864 Descending Kansas City Center
Mon 06:46:56 PM 38.2308 -91.6350 238° Southwest 472 543 26,200 -1,258 Descending Kansas City Center
Mon 06:47:56 PM 38.1614 -91.7711 237° Southwest 459 528 24,700 -1,645 Descending Kansas City Center
Mon 06:49:00 PM 38.0953 -91.9028 237° Southwest 443 510 22,800 -1,935 Descending Kansas City Center
Mon 06:50:00 PM 38.0314 -92.0292 237° Southwest 428 493 20,700 -2,083 Descending Kansas City Center
Mon 06:51:01 PM 37.9678 -92.1558 238° Southwest 417 480 18,600 -1,872 Descending Kansas City Center
Mon 06:52:05 PM 37.9053 -92.2803 238° Southwest 418 481 16,800 -1,258 Descending Kansas City Center
Mon 06:53:05 PM 37.8319 -92.4189 236° Southwest 402 463 16,000 -387 Descending Kansas City Center
Mon 06:54:09 PM 37.7742 -92.5314 237° Southwest 389 448 16,000 -1,113 Level Kansas City Center
Mon 06:55:09 PM 37.7383 -92.6567 250° West 372 428 13,700 -2,177 Descending Kansas City Center
Mon 06:56:13 PM 37.7314 -92.7828 266° West 360 414 11,500 -1,645 Descending Kansas City Center
Mon 06:57:13 PM 37.7250 -92.8956 266° West 330 380 10,300 -1,403 Descending Kansas City Center
Mon 06:58:17 PM 37.7194 -92.9983 266° West 304 350 8,600 -1,548 Descending Kansas City Center
Mon 06:59:17 PM 37.6875 -93.0836 245° Southwest 287 330 7,100 -780 Descending Kansas City Center
Mon 07:00:20 PM 37.6325 -93.1444 221° Southwest 269 310 7,000 -871 Descending Kansas City Center
Mon 07:01:21 PM 37.5642 -93.2211 222° Southwest 272 313 5,300 -1,440 Descending Kansas City Center
Mon 07:02:25 PM 37.5083 -93.2850 222° Southwest 271 312 4,000 -1,161 Descending Kansas City Center
Mon 07:03:25 PM 37.4508 -93.3450 220° Southwest 270 311 2,900 -532 Descending Kansas City Center
Mon 07:04:29 PM 37.3958 -93.3956 216° Southwest 257 296 2,900 48 Level Kansas City Center
Mon 07:05:30 PM 37.3444 -93.4483 219° Southwest 247 284 3,000 -98 Climbing Kansas City Center
Mon 07:06:31 PM 37.3033 -93.4500 182° South 195 224 2,700 -295 Descending Kansas City Center
Mon 07:08:00 PM 37.2457 -93.3886 202° Southwest  Level Estimated
Mon 07:15:00 PM 37.2457 -93.3886 202° Southwest  Level Estimated

Login

Don't have an account? Register now (free) for customized features, flight alerts, and more!